Relevés horaires Jungfraujoch (Suisse)


Relevés horaires à Jungfraujoch - Dimanche 25 Janv. 2004
Heure UTC1 Température [°C] Vent [km/h] Hum. [%] Pres.4 [hPa] Visi. [Km] Nébu. [octa] Préc.5 [mm] Cond.
2m. Res. Ros. Dir.2 Vit. Moy. Raf.3
23:00 -16.3 -16.3 -33.3 NNO 0.0 -- -- 21 700 -- -- -- --
22:00 -16.8 -16.8 -31.9 NNO 0.0 -- -- 26 700 -- -- -- --
21:00 -19.9 -19.9 -30.7 NNO 0.0 -- 44.4 37 700(-0.4/3h) -- -- -- --
20:00 -19.1 -19.1 -30.9 NNO 0.0 -- -- 34 700 -- -- -- --
19:00 -19.4 -19.4 -32.4 NNO 0.0 -- -- 30 700 -- -- -- --
18:00 -20.1 -30.7 -23.3 ONO 20.4 -- 44.4 75 700(-0.1/3h) >70 1/8 -- Nuages se dissipant
17:00 -19.8 -31.2 -22.0 NO 24.1 -- -- 82 700 -- -- -- --
16:00 -19.2 -31.1 -21.4 ONO 27.8 -- -- 83 700 -- -- -- --
15:00 -19.2 -30.4 -21.4 ONO 24.1 -- 44.4 83 700(-0.5/3h) 0 -- -- Brouillard, ciel pas visible, pas de changement
14:00 -19.8 -31.9 -22.0 NO 27.8 -- -- 82 700 -- -- -- --
13:00 -19.9 -32.7 -22.1 NO 31.5 -- -- 82 700 -- -- -- --
11:00 -18.9 -30.4 -21.0 NO 25.9 -- -- 83 700 -- -- -- --
10:00 -19.0 -28.8 -21.1 NO 18.5 -- -- 83 700 -- -- -- --
09:00 -20.4 -31.5 -22.7 ONO 22.2 40.7 70.4 82 700(0.0/3h) 0 -- -- Légère neige continue
08:00 -20.1 -32.6 -22.3 ONO 29.6 -- -- 82 700 -- -- -- --
07:00 -19.8 -31.9 -22.0 NO 27.8 -- -- 82 700 -- -- -- --
06:00 -20.7 -34.4 -23.0 NO 35.2 40.7 77.8 82 700(-1.0/3h) 0 -- -- Neige forte continue
05:00 -19.5 -33 -21.7 ONO 37.0 -- -- 83 700 -- -- -- --
04:00 -18.7 -31.4 -20.8 ONO 33.3 -- -- 83 700 -- -- -- --
03:00 -16.3 -28.3 -18.2 ONO 33.3 46.3 90.7 85 700(-1.2/3h) -- -- -- --
02:00 -15.7 -26.9 -17.5 ONO 29.6 -- -- 86 700 -- -- -- --
01:00 -15.5 -25.3 -17.3 NO 22.2 -- -- 86 700 -- -- -- --
00:00 -13.1 -25 -14.7 ONO 40.7 51.9 100.0 88 700(-1.1/3h) -- -- -- --

1 Coordinated Universal Time. Actuellement il est 07:00 locale et 05:00 UTC.

2 Le vent souffle depuis la direction indiquée vers la direction oposée.

3 Les rafales max. sont disponible 40 min après l'heure du relevé.

4 Pour les stations d'altitude (plus de 600m) le géopotentiel du niveau le plus proche de la pression obligatoire est indiqué.

5 Les stations disposant d'un diffuseur peuvent indiquer "trace". Cela signifie que des précipitations ont touchés le sol mais que la quantité est inférieure à 0.1 mm.

Copyright

Les données affichées sur cette page sont la propriété exclusive de Météo Suisse.

Récapitulatif de la journée
Température [°C] Vent [km/h] Ensoleillement4 [h] Precipitations totale5 [mm] Pression [Hpa]
Min1 Max.2 Moy.3 Max. Min Max.
-20.8 -18.5 44.9 100.0 0 h 0 min 0 700.0 700.0

1 Température minimale relevée entre 18:00 UTC la veille et 18:00 UTC le jour donné.

2 Température maximale relevée entre 06:00 UTC le jour donné et 06:00 UTC le lendemain.

3 Vent moyen de la journée basé sur les relevés horaires.

4 Ensoleillement en heures relevé entre 06:00 UTC la veille et 06:00 UTC le jour donné.

5 Précipitations totales tombées entre 06:00 UTC la jour donné et 06:00 UTC le lendemain.

Graphiques horaires